• Join FlightAware (Why Join?)
  • Login
  • US Flag 
10:40AM EDT


 

Airport Tracker/Info


-or-


 

Live Flight TrackerFlight Track Log ✈ CCA4488 ✈ 05-May-2014 ✈ ZUJZ / JZH - ZUUU / CTU

Flight Track Log - Related Links

Times and Time Zones

All times are in EDT time to prevent confusion due to time zone crossing. See the CCA4488 flight status page for this flight to view local times or setup timezone preferences in your user account.

Time Position Orientation Groundspeed Altitude Reporting Facility
EDT Latitude Longitude Course Direction KTS MPH feet Rate Location/Type
07:42PM 32.6044 103.7129 174° South  Level Estimated
07:43PM 32.5413 103.7204 174° South  Level Estimated
07:44PM 32.4782 103.7278 174° South  Level Estimated
07:45PM 32.4150 103.7353 174° South  Level Estimated
07:46PM 32.3519 103.7427 174° South  Level Estimated
07:47PM 32.2887 103.7501 174° South  Level Estimated
07:48PM 32.2256 103.7575 174° South  Level Estimated
07:49PM 32.1624 103.7649 174° South  Level Estimated
07:50PM 32.0993 103.7723 174° South  Level Estimated
07:51PM 32.0362 103.7796 174° South  Level Estimated
07:52PM 31.9730 103.7870 174° South  Level Estimated
07:53PM 31.9099 103.7944 174° South  Level Estimated
07:54PM 31.8467 103.8017 174° South  Level Estimated
07:55PM 31.7836 103.8090 174° South  Level Estimated
07:56PM 31.7204 103.8164 174° South  Level Estimated
07:57PM 31.6573 103.8237 174° South  Level Estimated
07:58PM 31.5941 103.8310 174° South  Level Estimated
07:59PM 31.5310 103.8383 174° South  Level Estimated
08:00PM 31.4678 103.8456 174° South  Level Estimated
08:01PM 31.4047 103.8528 174° South  Level Estimated
08:02PM 31.3415 103.8601 174° South  Level Estimated
08:03PM 31.2784 103.8673 174° South  Level Estimated
08:04PM 31.2152 103.8746 174° South  Level Estimated
08:05PM 31.1521 103.8818 174° South  Level Estimated
08:06PM 31.0889 103.8891 174° South  Level Estimated
08:07PM 31.0258 103.8963 174° South  Level Estimated
08:08PM 30.9626 103.9035 174° South  Level Estimated
08:09PM 30.8995 103.9107 174° South  Level Estimated
08:10PM 30.8363 103.9178 174° South  Level Estimated
08:11PM 30.7732 103.9250 174° South  Level Estimated
08:12PM 30.7100 103.9322 174° South  Level Estimated
08:13PM 30.6469 103.9393 174° South  Level Estimated
08:14PM 30.5837 103.9465 174° South  Level Estimated
08:15PM 30.5785 103.9471 174° South  Level Estimated
08:16PM 30.5785 103.9471 North  Level Estimated
08:17PM 30.5785 103.9471 North  Level Estimated
08:18PM 30.5785 103.9471 North  Level Estimated
08:19PM 30.5785 103.9471 North  Level Estimated
08:20PM 30.5785 103.9471 North  Level Estimated
08:21PM 30.5785 103.9471 North  Level Estimated